Time;durP1;ratioP1;P1;durP2;ratioP2;P2;SDS_P1;SDS_P2;PMS_P1;PMS_P2;Temp;Humidity;BMP_temperature;BMP_pressure;BME280_temperature;BME280_humidity;BME280_pressure;Samples;Min_cycle;Max_cycle;Signal;HPM_P1;HPM_P2
2022/07/06 03:56:51;;;;;;;3.40;0.30;;;19.70;59.60;;;;;;5133581;24;20399;-75
2022/07/06 03:59:16;;;;;;;5.68;0.30;;;19.60;59.60;;;;;;4773953;30;20055;-75
2022/07/06 04:01:42;;;;;;;1.95;0.50;;;19.60;59.40;;;;;;4773668;30;20046;-74
2022/07/06 04:04:11;;;;;;;2.92;0.20;;;19.60;60.40;;;;;;4753611;30;20051;-72
2022/07/06 04:06:37;;;;;;;1.45;0.20;;;19.70;60.40;;;;;;4774329;30;20052;-74
2022/07/06 04:09:04;;;;;;;2.58;0.43;;;19.70;59.90;;;;;;4758286;30;20467;-77
2022/07/06 04:11:29;;;;;;;1.88;0.40;;;19.70;60.20;;;;;;4758398;30;20051;-76
2022/07/06 04:13:57;;;;;;;3.58;0.73;;;19.70;59.30;;;;;;4756744;30;20138;-75
2022/07/06 04:16:25;;;;;;;1.75;0.40;;;19.70;59.10;;;;;;4758103;30;20447;-78
2022/07/06 04:18:51;;;;;;;2.40;0.20;;;19.70;58.90;;;;;;4773770;30;20044;-75
2022/07/06 04:21:16;;;;;;;4.80;0.63;;;19.70;58.80;;;;;;4773515;30;20130;-76
2022/07/06 04:23:42;;;;;;;1.38;0.20;;;19.70;58.80;;;;;;4758104;30;20067;-78
2022/07/06 04:26:11;;;;;;;1.15;0.40;;;19.70;58.70;;;;;;4772642;30;20105;-79
2022/07/06 04:28:37;;;;;;;10.10;0.65;;;19.60;59.30;;;;;;4757865;30;20063;-78
2022/07/06 04:31:03;;;;;;;2.78;0.30;;;19.60;58.70;;;;;;4773348;30;20051;-78
2022/07/06 04:33:28;;;;;;;1.42;0.20;;;19.60;58.60;;;;;;4772221;30;20055;-76
2022/07/06 04:35:54;;;;;;;2.50;0.50;;;19.60;58.60;;;;;;4773761;30;20185;-78
2022/07/06 04:38:20;;;;;;;4.30;0.30;;;19.60;58.70;;;;;;4757908;30;20048;-75
2022/07/06 04:40:46;;;;;;;5.00;0.40;;;19.60;58.60;;;;;;4773489;30;20059;-81
2022/07/06 04:43:12;;;;;;;2.15;0.50;;;19.50;58.70;;;;;;4757262;30;20048;-77
2022/07/06 04:45:46;;;;;;;1.83;0.30;;;19.50;58.70;;;;;;4773095;30;20082;-80
2022/07/06 04:48:11;;;;;;;1.70;0.20;;;19.50;58.90;;;;;;4757418;30;20051;-77
2022/07/06 04:50:37;;;;;;;1.65;0.35;;;19.50;59.10;;;;;;4773090;30;20121;-77
2022/07/06 04:53:03;;;;;;;1.83;0.20;;;19.50;59.30;;;;;;4773405;30;20048;-73
2022/07/06 04:55:29;;;;;;;4.88;0.50;;;19.50;59.40;;;;;;4771893;30;20055;-76
2022/07/06 04:57:55;;;;;;;2.17;0.55;;;19.50;59.60;;;;;;4756791;30;20183;-74
2022/07/06 05:00:21;;;;;;;10.18;0.57;;;19.40;59.80;;;;;;4772869;30;20511;-75
2022/07/06 05:02:47;;;;;;;8.70;0.77;;;19.50;60.30;;;;;;4772963;30;20142;-77
2022/07/06 05:05:12;;;;;;;11.35;0.82;;;19.50;60.20;;;;;;4773015;30;20134;-76
2022/07/06 05:07:44;;;;;;;2.88;0.40;;;19.50;60.30;;;;;;4757850;30;20051;-77
2022/07/06 05:10:11;;;;;;;6.85;0.60;;;19.50;60.50;;;;;;4756729;30;20052;-77
2022/07/06 05:12:40;;;;;;;4.60;0.40;;;19.50;60.50;;;;;;4756865;30;20094;-78
2022/07/06 05:15:07;;;;;;;2.60;0.28;;;19.50;60.50;;;;;;4757672;30;20056;-75
2022/07/06 05:17:33;;;;;;;3.20;0.43;;;19.50;60.60;;;;;;4757441;30;20388;-76
2022/07/06 05:19:59;;;;;;;4.95;0.50;;;19.50;60.70;;;;;;4756460;30;20051;-76
2022/07/06 05:22:24;;;;;;;2.60;0.50;;;19.50;60.80;;;;;;4756755;30;20047;-76
2022/07/06 05:24:51;;;;;;;2.28;0.20;;;19.50;60.80;;;;;;4772372;30;20048;-76
2022/07/06 05:27:16;;;;;;;2.22;0.30;;;19.50;60.80;;;;;;4772488;30;20056;-75
2022/07/06 05:29:42;;;;;;;1.38;0.20;;;19.40;60.60;;;;;;4771157;30;20056;-77
2022/07/06 05:32:08;;;;;;;4.05;0.47;;;19.40;60.50;;;;;;4772728;30;20051;-76
2022/07/06 05:34:35;;;;;;;1.52;0.20;;;19.50;60.40;;;;;;4742342;30;20048;-77
2022/07/06 05:37:01;;;;;;;2.70;0.50;;;19.50;60.40;;;;;;4757229;30;20051;-77
2022/07/06 05:39:26;;;;;;;1.30;0.32;;;19.40;60.30;;;;;;4772390;30;20053;-78
2022/07/06 05:41:55;;;;;;;4.13;0.35;;;19.50;60.30;;;;;;4772049;30;20047;-71
2022/07/06 05:44:21;;;;;;;3.90;0.50;;;19.40;60.10;;;;;;4773008;30;20139;-76
2022/07/06 05:46:46;;;;;;;4.38;0.50;;;19.50;60.10;;;;;;4772641;30;20216;-77
2022/07/06 05:51:56;;;;;;;2.70;0.40;;;19.50;60.20;;;;;;4772577;30;20142;-77
2022/07/06 05:54:22;;;;;;;2.25;0.35;;;19.40;60.10;;;;;;4772130;30;20130;-76
2022/07/06 05:56:47;;;;;;;3.55;0.43;;;19.40;60.00;;;;;;4756304;30;20047;-76
2022/07/06 05:59:13;;;;;;;3.20;0.57;;;19.40;60.00;;;;;;4771722;30;20058;-75
2022/07/06 06:01:39;;;;;;;3.13;0.50;;;19.50;60.00;;;;;;4771819;30;20048;-77
2022/07/06 06:04:04;;;;;;;9.93;0.73;;;19.50;59.90;;;;;;4772336;30;20110;-77
2022/07/06 06:06:36;;;;;;;4.22;0.32;;;19.50;60.00;;;;;;4756642;30;20059;-78
2022/07/06 06:09:01;;;;;;;4.60;1.20;;;19.50;60.00;;;;;;4772036;30;20054;-75
2022/07/06 06:11:27;;;;;;;2.88;0.60;;;19.50;60.40;;;;;;4756433;30;21535;-75
2022/07/06 06:13:53;;;;;;;3.03;0.50;;;19.50;60.20;;;;;;4772067;30;20056;-77
2022/07/06 06:16:18;;;;;;;6.35;0.50;;;19.40;59.90;;;;;;4772078;30;20048;-75
2022/07/06 06:18:44;;;;;;;10.65;1.70;;;19.40;60.10;;;;;;4772117;30;20594;-77
2022/07/06 06:21:10;;;;;;;4.50;0.40;;;19.40;60.20;;;;;;4756229;30;20056;-78
2022/07/06 06:23:36;;;;;;;3.80;0.70;;;19.40;60.20;;;;;;4771354;30;20479;-74
2022/07/06 06:26:02;;;;;;;5.15;0.50;;;19.40;60.10;;;;;;4771908;30;20066;-75
2022/07/06 06:28:28;;;;;;;4.70;0.43;;;19.50;60.30;;;;;;4771906;30;20139;-78
2022/07/06 06:30:53;;;;;;;5.97;0.75;;;19.50;60.00;;;;;;4756582;30;20131;-75
2022/07/06 06:33:21;;;;;;;2.88;0.60;;;19.60;59.90;;;;;;4771555;30;20091;-77
2022/07/06 06:35:51;;;;;;;4.97;0.65;;;19.60;59.90;;;;;;4771789;30;20117;-77
2022/07/06 06:38:19;;;;;;;2.42;0.30;;;19.70;59.60;;;;;;4774105;30;20059;-76
2022/07/06 06:40:45;;;;;;;8.48;0.50;;;19.70;59.60;;;;;;4775245;30;20102;-74
2022/07/06 06:43:11;;;;;;;2.40;0.40;;;19.70;60.00;;;;;;4775038;30;20083;-79
2022/07/06 06:45:37;;;;;;;1.55;0.38;;;19.80;59.60;;;;;;4775280;30;20446;-77
2022/07/06 06:48:04;;;;;;;1.65;0.30;;;19.80;59.20;;;;;;4775264;30;20126;-76
2022/07/06 06:50:29;;;;;;;1.58;0.22;;;19.80;59.00;;;;;;4775273;30;20047;-75
2022/07/06 06:52:55;;;;;;;2.15;0.38;;;19.80;58.90;;;;;;4774887;30;20047;-77
2022/07/06 06:55:21;;;;;;;2.47;0.20;;;19.80;58.70;;;;;;4775160;30;20055;-76
2022/07/06 06:57:46;;;;;;;2.53;0.20;;;19.80;58.70;;;;;;4774385;30;20060;-78
2022/07/06 07:00:13;;;;;;;1.50;0.30;;;19.80;58.80;;;;;;4758959;30;20064;-78
2022/07/06 07:02:38;;;;;;;2.65;0.30;;;19.80;58.90;;;;;;4744076;30;20059;-76
2022/07/06 07:05:05;;;;;;;1.55;0.25;;;19.80;59.40;;;;;;4763818;30;20063;-76
2022/07/06 07:07:31;;;;;;;2.90;0.40;;;19.90;58.50;;;;;;4741206;30;20044;-75
2022/07/06 07:09:57;;;;;;;3.40;0.40;;;19.90;57.50;;;;;;4757514;30;20063;-77
2022/07/06 07:12:22;;;;;;;1.42;0.10;;;19.80;57.40;;;;;;4763713;30;20089;-76
2022/07/06 07:14:48;;;;;;;2.47;0.30;;;19.80;57.70;;;;;;4773987;30;20131;-78
2022/07/06 07:17:14;;;;;;;1.45;0.20;;;19.80;56.80;;;;;;4774734;30;20072;-75
2022/07/06 07:19:40;;;;;;;3.25;0.22;;;19.80;57.00;;;;;;4774020;30;20051;-77
2022/07/06 07:22:06;;;;;;;2.78;0.35;;;19.80;57.00;;;;;;4773857;30;20513;-75
2022/07/06 07:24:32;;;;;;;2.05;0.40;;;19.70;57.40;;;;;;4758479;30;20131;-75
2022/07/06 07:27:01;;;;;;;2.67;0.22;;;19.70;57.50;;;;;;4774061;30;20060;-80
2022/07/06 07:29:27;;;;;;;4.32;0.60;;;19.60;57.90;;;;;;4773570;30;20047;-77
2022/07/06 07:31:53;;;;;;;4.90;0.82;;;19.60;58.40;;;;;;4743679;30;20056;-78
2022/07/06 07:34:18;;;;;;;9.98;0.75;;;19.60;58.70;;;;;;4774445;30;20112;-78
2022/07/06 07:36:44;;;;;;;3.60;0.30;;;19.60;58.90;;;;;;4758962;30;20090;-79
2022/07/06 07:39:10;;;;;;;6.95;0.50;;;19.60;59.30;;;;;;4758716;30;20063;-77
2022/07/06 07:41:35;;;;;;;5.32;0.55;;;19.70;59.50;;;;;;4774065;30;20048;-79
2022/07/06 07:44:04;;;;;;;4.47;0.30;;;19.80;59.70;;;;;;4747482;30;20438;-80
2022/07/06 07:46:30;;;;;;;5.25;0.70;;;19.90;59.80;;;;;;4755065;30;20443;-78
2022/07/06 07:48:56;;;;;;;4.88;0.35;;;19.90;59.90;;;;;;4755418;30;20127;-79
2022/07/06 07:51:22;;;;;;;3.20;0.47;;;20.00;59.90;;;;;;4731793;30;20047;-80
2022/07/06 07:53:47;;;;;;;3.35;0.40;;;20.10;60.00;;;;;;4758761;30;20124;-79
2022/07/06 07:56:13;;;;;;;1.63;0.40;;;20.10;60.00;;;;;;4743325;30;20048;-79
2022/07/06 07:58:39;;;;;;;3.22;0.22;;;20.10;60.10;;;;;;4757733;30;20058;-79
2022/07/06 08:01:19;;;;;;;4.57;0.50;;;20.20;60.20;;;;;;4754273;30;20044;-79
2022/07/06 08:03:49;;;;;;;5.20;0.57;;;20.20;60.20;;;;;;4730695;30;20056;-80
2022/07/06 08:06:15;;;;;;;4.78;0.63;;;20.20;60.30;;;;;;4743899;30;20461;-80
2022/07/06 08:08:40;;;;;;;7.75;0.30;;;20.30;60.40;;;;;;4741228;30;20055;-76
2022/07/06 08:11:07;;;;;;;3.30;0.30;;;20.30;60.20;;;;;;4769097;30;20047;-75
2022/07/06 08:13:33;;;;;;;3.35;0.30;;;20.30;59.80;;;;;;4767740;30;20047;-77
2022/07/06 08:16:00;;;;;;;3.38;0.20;;;20.30;59.00;;;;;;4757578;30;20371;-76
2022/07/06 08:18:25;;;;;;;4.40;0.68;;;20.30;58.40;;;;;;4773443;30;20059;-79
2022/07/06 08:20:51;;;;;;;3.60;0.50;;;20.30;58.40;;;;;;4757603;30;20055;-78
2022/07/06 08:23:17;;;;;;;1.58;0.20;;;20.30;58.30;;;;;;4773642;30;20071;-78
2022/07/06 08:25:42;;;;;;;2.75;0.40;;;20.30;57.70;;;;;;4757841;30;20063;-77
2022/07/06 08:28:08;;;;;;;2.80;0.30;;;20.30;57.40;;;;;;4773413;30;20048;-76
2022/07/06 08:30:34;;;;;;;3.80;0.40;;;20.30;57.30;;;;;;4772689;30;20051;-79
2022/07/06 08:33:01;;;;;;;4.32;0.30;;;20.30;57.60;;;;;;4758645;30;20056;-78
2022/07/06 08:35:27;;;;;;;2.83;0.55;;;20.30;58.00;;;;;;4773285;30;20052;-79
2022/07/06 08:37:53;;;;;;;1.25;0.20;;;20.30;58.40;;;;;;4763630;30;20067;-77
2022/07/06 08:40:22;;;;;;;2.58;0.60;;;20.40;58.80;;;;;;4768569;30;20095;-81
2022/07/06 08:42:53;;;;;;;2.88;0.30;;;20.40;59.00;;;;;;4744051;30;20055;-81
2022/07/06 08:45:19;;;;;;;2.83;0.52;;;20.40;59.10;;;;;;4757371;30;20101;-81
2022/07/06 08:47:49;;;;;;;5.45;0.55;;;20.40;59.00;;;;;;4757188;30;20040;-78
2022/07/06 08:50:16;;;;;;;5.78;0.35;;;20.40;58.80;;;;;;4757294;30;20040;-79
2022/07/06 08:52:42;;;;;;;7.90;1.00;;;20.40;58.40;;;;;;4773092;30;20123;-83
2022/07/06 08:55:11;;;;;;;5.53;0.95;;;20.40;58.10;;;;;;4746944;30;20532;-79
2022/07/06 08:57:39;;;;;;;5.63;0.90;;;20.40;58.60;;;;;;4754966;30;20133;-80
2022/07/06 09:00:08;;;;;;;7.22;0.70;;;20.40;59.00;;;;;;4770242;30;20071;-77
2022/07/06 09:02:34;;;;;;;10.00;0.70;;;20.40;59.10;;;;;;4756962;30;20120;-78
2022/07/06 09:05:03;;;;;;;6.05;0.50;;;20.40;59.30;;;;;;4773645;30;20109;-79
2022/07/06 09:07:29;;;;;;;4.30;0.70;;;20.50;59.40;;;;;;4757194;30;20091;-79
2022/07/06 09:09:55;;;;;;;7.00;0.73;;;20.50;59.40;;;;;;4772886;30;20051;-78
2022/07/06 09:12:21;;;;;;;3.08;0.65;;;20.50;59.50;;;;;;4756963;30;20535;-79
2022/07/06 09:14:47;;;;;;;2.78;0.60;;;20.50;59.60;;;;;;4773175;30;20063;-79
2022/07/06 09:17:14;;;;;;;5.10;0.35;;;20.50;59.60;;;;;;4756620;30;20446;-77
2022/07/06 09:19:40;;;;;;;3.42;0.50;;;20.60;59.70;;;;;;4772439;30;20059;-78
2022/07/06 09:22:06;;;;;;;3.55;0.63;;;20.60;59.70;;;;;;4757079;30;20413;-79
2022/07/06 09:24:31;;;;;;;5.05;0.68;;;20.60;59.80;;;;;;4772730;30;19922;-77
2022/07/06 09:26:58;;;;;;;3.47;0.40;;;20.60;59.80;;;;;;4756885;30;20040;-79
2022/07/06 09:29:28;;;;;;;5.20;0.80;;;20.60;59.80;;;;;;4772373;30;20422;-78
2022/07/06 09:32:01;;;;;;;4.18;0.40;;;20.60;59.80;;;;;;4756945;30;20056;-78
2022/07/06 09:34:46;;;;;;;2.05;0.20;;;20.60;59.80;;;;;;4773229;30;20440;-77
2022/07/06 09:37:13;;;;;;;3.20;0.30;;;20.60;59.70;;;;;;4772899;30;20072;-79
2022/07/06 09:39:39;;;;;;;1.35;0.45;;;20.60;59.80;;;;;;4756712;30;20114;-80
2022/07/06 09:42:08;;;;;;;5.38;1.02;;;20.70;59.90;;;;;;4772388;30;20051;-74
2022/07/06 09:44:39;;;;;;;2.40;0.30;;;20.70;59.90;;;;;;4772334;30;20058;-74
2022/07/06 09:47:08;;;;;;;2.33;0.60;;;20.60;59.80;;;;;;4772447;30;20043;-76
2022/07/06 09:49:34;;;;;;;2.35;0.38;;;20.70;59.80;;;;;;4772375;30;20065;-77
2022/07/06 09:52:08;;;;;;;4.05;0.30;;;20.70;59.80;;;;;;4772007;30;20055;-78
2022/07/06 09:54:35;;;;;;;3.38;0.40;;;20.70;59.70;;;;;;4772386;30;20063;-76
2022/07/06 09:57:01;;;;;;;2.25;0.30;;;20.70;59.80;;;;;;4756604;30;20051;-76
2022/07/06 09:59:29;;;;;;;2.05;0.20;;;20.70;59.60;;;;;;4772199;30;20059;-76
2022/07/06 10:01:57;;;;;;;3.30;0.40;;;20.70;59.70;;;;;;4756313;30;20429;-77
2022/07/06 10:04:24;;;;;;;1.55;0.30;;;20.70;59.70;;;;;;4772384;30;20052;-75
2022/07/06 10:06:51;;;;;;;3.28;0.20;;;20.80;59.80;;;;;;4771803;30;20083;-75
2022/07/06 10:09:19;;;;;;;1.85;0.30;;;20.80;59.80;;;;;;4756559;30;20043;-78
2022/07/06 10:11:52;;;;;;;1.45;0.40;;;20.80;59.70;;;;;;4772085;30;20075;-78
2022/07/06 10:14:21;;;;;;;1.85;0.55;;;20.80;59.70;;;;;;4770720;30;20044;-75
2022/07/06 10:16:48;;;;;;;1.95;0.30;;;20.80;59.70;;;;;;4756056;30;20064;-77
2022/07/06 10:19:14;;;;;;;1.20;0.17;;;20.80;59.40;;;;;;4772255;30;20060;-77
2022/07/06 10:21:41;;;;;;;3.72;0.40;;;20.70;58.50;;;;;;4771800;30;20063;-77
2022/07/06 10:24:08;;;;;;;6.78;0.60;;;20.70;57.90;;;;;;4771526;30;20077;-76
2022/07/06 10:26:35;;;;;;;2.97;0.40;;;20.70;57.60;;;;;;4754412;30;20482;-75
2022/07/06 10:29:05;;;;;;;4.70;0.40;;;20.60;57.90;;;;;;4758756;30;20139;-79
2022/07/06 10:31:36;;;;;;;6.38;0.35;;;20.60;58.50;;;;;;4753394;30;20379;-78
2022/07/06 10:34:05;;;;;;;2.80;0.30;;;20.60;58.60;;;;;;4770315;30;20052;-76
2022/07/06 10:36:36;;;;;;;2.22;0.32;;;20.60;58.70;;;;;;4771484;30;20364;-77
2022/07/06 10:41:02;;;;;;;1.33;0.25;;;20.70;58.90;;;;;;4771808;30;20127;-78
2022/07/06 10:41:48;;;;;;;1.75;0.20;;;20.70;59.00;;;;;;4771678;30;20204;-78
2022/07/06 10:44:31;;;;;;;4.35;0.40;;;20.70;59.00;;;;;;4771423;30;20426;-75
2022/07/06 10:46:58;;;;;;;2.17;0.60;;;20.70;59.00;;;;;;4741888;30;20058;-77
2022/07/06 10:49:26;;;;;;;3.63;0.40;;;20.70;59.20;;;;;;4771630;30;20055;-78
2022/07/06 10:51:53;;;;;;;2.17;0.40;;;20.80;59.40;;;;;;4755670;30;20127;-78
2022/07/06 10:54:20;;;;;;;2.50;0.40;;;20.80;59.40;;;;;;4756294;30;20052;-79
2022/07/06 10:56:50;;;;;;;3.72;0.50;;;20.80;59.40;;;;;;4741111;30;20130;-76
2022/07/06 10:59:17;;;;;;;1.75;0.32;;;20.80;59.50;;;;;;4753761;30;20151;-78
2022/07/06 11:02:12;;;;;;;3.00;0.13;;;20.80;59.60;;;;;;4753322;30;20056;-78
2022/07/06 11:04:41;;;;;;;1.80;0.35;;;20.80;59.30;;;;;;4735650;30;20376;-77
2022/07/06 11:07:13;;;;;;;2.70;0.20;;;20.80;59.40;;;;;;4736303;30;20405;-73
2022/07/06 11:09:42;;;;;;;2.60;0.30;;;20.90;58.00;;;;;;4736102;30;20469;-77
2022/07/06 11:12:18;;;;;;;1.02;0.30;;;21.00;55.80;;;;;;4766766;30;20057;-77
2022/07/06 11:14:46;;;;;;;1.67;0.32;;;21.00;55.70;;;;;;4741122;30;20096;-75
2022/07/06 11:17:14;;;;;;;0.63;0.15;;;21.00;55.30;;;;;;4753945;30;20059;-76
2022/07/06 11:19:50;;;;;;;2.80;0.20;;;20.90;55.70;;;;;;4753901;30;20484;-78
2022/07/06 11:22:17;;;;;;;0.80;0.10;;;20.90;55.30;;;;;;4751099;30;20134;-79
2022/07/06 11:24:43;;;;;;;1.35;0.30;;;20.90;54.80;;;;;;4767404;30;20490;-78
2022/07/06 11:27:09;;;;;;;3.88;0.38;;;20.80;55.60;;;;;;4767575;30;20342;-79
2022/07/06 11:29:38;;;;;;;3.25;0.30;;;20.80;56.30;;;;;;4723511;30;20041;-78
2022/07/06 11:32:08;;;;;;;3.83;0.63;;;20.80;56.90;;;;;;4767845;30;20044;-77
2022/07/06 11:34:40;;;;;;;2.97;0.35;;;20.80;57.20;;;;;;4740814;30;20120;-78
2022/07/06 11:37:09;;;;;;;1.40;0.30;;;20.80;57.40;;;;;;4744055;30;20465;-76
2022/07/06 11:39:39;;;;;;;0.85;0.28;;;20.90;57.60;;;;;;4739142;30;20041;-77
2022/07/06 11:42:06;;;;;;;2.53;0.30;;;20.90;57.70;;;;;;4739147;30;20075;-79
2022/07/06 11:44:33;;;;;;;3.60;0.22;;;20.90;57.70;;;;;;4746319;30;20127;-77
2022/07/06 11:47:03;;;;;;;2.25;0.70;;;20.90;57.80;;;;;;4726146;30;20067;-76
2022/07/06 11:56:10;;;;;;;5.53;0.70;;;21.10;58.10;;;;;;4721312;30;20132;-79
2022/07/06 11:58:40;;;;;;;8.82;1.60;;;21.10;57.60;;;;;;4733357;30;20135;-79
2022/07/06 12:01:07;;;;;;;11.68;1.45;;;21.10;57.30;;;;;;4739787;30;20059;-79
2022/07/06 12:03:34;;;;;;;3.55;1.17;;;21.00;57.00;;;;;;4774294;30;20353;-78
2022/07/06 12:06:03;;;;;;;4.10;1.15;;;21.00;56.90;;;;;;4773986;30;20052;-77
2022/07/06 12:08:29;;;;;;;3.05;0.80;;;21.00;57.00;;;;;;4773249;30;20102;-78
2022/07/06 12:10:56;;;;;;;5.43;1.20;;;21.00;56.90;;;;;;4773999;30;20052;-79
2022/07/06 12:13:23;;;;;;;4.85;0.93;;;21.00;56.70;;;;;;4757289;30;20071;-79
2022/07/06 12:15:50;;;;;;;4.70;0.70;;;20.90;56.70;;;;;;4770063;30;20067;-79
2022/07/06 12:18:16;;;;;;;5.95;0.82;;;20.90;56.50;;;;;;4756281;30;20055;-79
2022/07/06 12:20:42;;;;;;;3.17;0.70;;;20.90;56.40;;;;;;4755573;30;20052;-78
2022/07/06 12:23:08;;;;;;;4.93;1.00;;;20.90;56.30;;;;;;4768623;30;20051;-78
2022/07/06 12:25:36;;;;;;;4.15;0.65;;;20.90;56.20;;;;;;4773852;30;20070;-79
2022/07/06 12:28:02;;;;;;;1.10;0.43;;;20.90;56.10;;;;;;4773083;30;20070;-78
2022/07/06 12:30:28;;;;;;;2.33;0.47;;;20.80;55.90;;;;;;4773869;30;20051;-79
2022/07/06 12:33:18;;;;;;;1.50;0.55;;;20.80;55.90;;;;;;4761229;30;20071;-77
2022/07/06 12:35:44;;;;;;;2.40;0.70;;;20.90;55.90;;;;;;4753818;30;20060;-77
2022/07/06 12:38:10;;;;;;;1.85;0.50;;;20.80;55.70;;;;;;4754747;30;20056;-79
2022/07/06 12:40:39;;;;;;;2.13;0.45;;;20.80;55.70;;;;;;4756005;30;20040;-73
2022/07/06 12:43:05;;;;;;;2.17;0.47;;;20.80;55.70;;;;;;4768321;30;20058;-75
2022/07/06 12:45:31;;;;;;;4.07;0.63;;;20.80;55.50;;;;;;4773222;30;20138;-81
2022/07/06 12:48:06;;;;;;;2.35;0.55;;;20.80;55.70;;;;;;4758160;30;20136;-78
2022/07/06 12:50:45;;;;;;;1.48;0.30;;;20.90;55.30;;;;;;4757225;30;20097;-79
2022/07/06 12:53:26;;;;;;;6.03;0.60;;;20.90;55.00;;;;;;4759760;30;20074;-78
2022/07/06 12:56:10;;;;;;;6.05;1.20;;;20.90;55.30;;;;;;4740215;30;20091;-78
2022/07/06 12:58:36;;;;;;;7.07;0.70;;;20.90;55.60;;;;;;4754076;30;20110;-77
2022/07/06 13:01:04;;;;;;;5.10;0.68;;;20.90;55.90;;;;;;4739421;30;20055;-76
2022/07/06 13:03:40;;;;;;;8.50;0.85;;;20.90;55.90;;;;;;4755751;30;20145;-78
2022/07/06 13:06:10;;;;;;;6.10;1.00;;;20.90;56.10;;;;;;4754579;30;20095;-79
2022/07/06 13:08:36;;;;;;;7.90;0.68;;;20.90;56.30;;;;;;4740534;30;20052;-78
2022/07/06 13:11:04;;;;;;;4.78;0.50;;;20.90;56.30;;;;;;4754057;30;20048;-78
2022/07/06 13:13:30;;;;;;;3.80;0.50;;;20.90;56.50;;;;;;4755292;30;20143;-77
2022/07/06 13:15:56;;;;;;;7.53;0.85;;;20.90;56.30;;;;;;4753741;30;20055;-77
2022/07/06 13:18:21;;;;;;;5.18;0.68;;;21.00;56.40;;;;;;4760425;30;20047;-77
2022/07/06 13:21:05;;;;;;;3.40;0.70;;;20.90;56.10;;;;;;4756994;30;20055;-78
2022/07/06 13:23:30;;;;;;;4.90;0.80;;;20.90;55.60;;;;;;4772374;30;20044;-77
2022/07/06 13:25:56;;;;;;;4.38;0.90;;;20.90;55.40;;;;;;4766247;30;20059;-77
2022/07/06 13:28:22;;;;;;;9.73;1.02;;;20.80;55.30;;;;;;4739662;30;20083;-77
2022/07/06 13:30:47;;;;;;;5.80;0.52;;;20.80;55.70;;;;;;4755233;30;20048;-76
2022/07/06 13:33:19;;;;;;;16.08;2.28;;;20.80;56.30;;;;;;4753570;30;20051;-78
2022/07/06 13:35:48;;;;;;;17.73;1.80;;;20.80;56.60;;;;;;4756550;30;20060;-77
2022/07/06 13:38:13;;;;;;;21.75;2.35;;;20.80;57.00;;;;;;4772320;30;20040;-74
2022/07/06 13:40:41;;;;;;;9.82;1.92;;;20.90;57.40;;;;;;4772304;30;20372;-77
2022/07/06 13:43:06;;;;;;;18.63;2.33;;;20.90;57.60;;;;;;4772487;30;20470;-76
2022/07/06 13:45:32;;;;;;;17.27;1.90;;;20.90;57.90;;;;;;4770401;30;20103;-77
2022/07/06 13:47:58;;;;;;;23.83;3.30;;;20.90;58.10;;;;;;4739177;30;20047;-78
2022/07/06 13:50:25;;;;;;;27.83;3.65;;;20.90;58.20;;;;;;4753679;30;20183;-78
2022/07/06 13:52:51;;;;;;;14.57;2.08;;;21.00;58.20;;;;;;4754588;30;20067;-76
2022/07/06 13:55:17;;;;;;;17.50;1.90;;;21.00;57.70;;;;;;4760503;30;20048;-77
2022/07/06 13:57:43;;;;;;;13.98;2.10;;;20.90;58.10;;;;;;4779064;30;20179;-76
2022/07/06 14:00:09;;;;;;;12.98;1.83;;;20.90;58.30;;;;;;4774362;30;20051;-76
2022/07/06 14:02:35;;;;;;;24.55;3.13;;;20.90;58.50;;;;;;4776367;30;20071;-71
2022/07/06 14:05:00;;;;;;;5.65;1.20;;;20.90;59.00;;;;;;4772104;30;20052;-74
2022/07/06 14:07:27;;;;;;;13.98;2.03;;;21.00;58.50;;;;;;4772303;30;20047;-75
2022/07/06 14:09:53;;;;;;;14.98;1.63;;;21.00;58.10;;;;;;4772010;30;20464;-73
2022/07/06 14:12:19;;;;;;;9.48;1.27;;;20.90;57.70;;;;;;4771256;30;20051;-75
2022/07/06 14:14:44;;;;;;;6.50;1.20;;;20.90;57.40;;;;;;4762572;30;20086;-75
2022/07/06 14:17:10;;;;;;;4.57;1.10;;;20.80;57.90;;;;;;4763001;30;20472;-74
2022/07/06 14:19:36;;;;;;;6.57;1.05;;;20.80;58.70;;;;;;4746221;30;20059;-75
2022/07/06 14:22:01;;;;;;;5.53;1.15;;;20.70;59.50;;;;;;4771011;30;20055;-76
2022/07/06 14:24:27;;;;;;;3.92;1.05;;;20.60;60.00;;;;;;4756312;30;20051;-75
2022/07/06 14:26:53;;;;;;;5.75;1.10;;;20.60;60.20;;;;;;4772085;30;20146;-75
2022/07/06 14:29:18;;;;;;;8.00;1.83;;;20.60;60.40;;;;;;4756024;30;20116;-76
2022/07/06 14:31:44;;;;;;;11.23;1.55;;;20.60;60.50;;;;;;4772017;30;20070;-77
2022/07/06 14:34:10;;;;;;;14.23;2.38;;;20.70;60.60;;;;;;4771620;30;20223;-76
2022/07/06 14:36:37;;;;;;;9.50;1.65;;;20.70;60.60;;;;;;4771607;30;20055;-76
2022/07/06 14:39:04;;;;;;;10.00;1.85;;;20.70;60.60;;;;;;4771886;30;20051;-75
2022/07/06 14:41:29;;;;;;;10.82;1.75;;;20.80;61.00;;;;;;4756241;30;20071;-76
2022/07/06 14:43:55;;;;;;;22.02;2.50;;;20.80;61.50;;;;;;4756052;30;20059;-77
2022/07/06 14:46:22;;;;;;;15.20;2.03;;;20.80;61.40;;;;;;4756760;30;20055;-74
2022/07/06 14:48:48;;;;;;;12.18;2.03;;;20.90;61.50;;;;;;4771536;30;20051;-72
2022/07/06 14:51:13;;;;;;;13.70;1.98;;;20.80;61.40;;;;;;4771636;30;20062;-73
2022/07/06 14:53:40;;;;;;;13.43;1.98;;;20.90;61.40;;;;;;4756343;30;20060;-78
2022/07/06 14:56:05;;;;;;;14.18;1.77;;;20.90;61.40;;;;;;4771932;30;20416;-78
2022/07/06 14:58:31;;;;;;;13.77;1.50;;;20.90;61.20;;;;;;4757590;30;20060;-77
2022/07/06 15:00:57;;;;;;;9.98;1.67;;;20.90;61.10;;;;;;4775293;30;20058;-78
2022/07/06 15:03:23;;;;;;;14.38;2.47;;;20.90;61.20;;;;;;4775126;30;20051;-78
2022/07/06 15:05:48;;;;;;;9.60;2.17;;;20.90;61.30;;;;;;4775103;30;20412;-78
2022/07/06 15:08:14;;;;;;;8.48;1.77;;;20.90;61.40;;;;;;4759502;30;20048;-78
2022/07/06 15:10:42;;;;;;;12.43;1.70;;;20.90;61.60;;;;;;4759502;30;20090;-78
2022/07/06 15:13:07;;;;;;;7.65;1.42;;;20.90;61.60;;;;;;4775288;30;20052;-76
2022/07/06 15:15:33;;;;;;;7.95;1.77;;;20.90;61.60;;;;;;4759116;30;20105;-77
2022/07/06 15:17:59;;;;;;;16.63;1.83;;;21.00;61.90;;;;;;4759799;30;20143;-76
2022/07/06 15:20:24;;;;;;;14.65;2.58;;;20.90;61.60;;;;;;4774850;30;20086;-76
2022/07/06 15:22:50;;;;;;;14.18;2.22;;;20.90;61.70;;;;;;4774032;30;20132;-77
2022/07/06 15:25:16;;;;;;;15.25;2.28;;;21.00;61.70;;;;;;4775116;30;20055;-77
2022/07/06 15:27:42;;;;;;;13.02;1.90;;;21.00;61.80;;;;;;4759154;30;20148;-79
2022/07/06 15:30:08;;;;;;;8.07;1.60;;;21.00;61.80;;;;;;4775021;30;20056;-77
2022/07/06 15:32:33;;;;;;;10.35;1.50;;;21.00;61.60;;;;;;4774579;30;20059;-77
2022/07/06 15:34:59;;;;;;;8.75;1.38;;;21.00;61.50;;;;;;4774856;30;20055;-80
2022/07/06 15:37:25;;;;;;;11.20;2.38;;;21.00;61.20;;;;;;4758692;30;20452;-77
2022/07/06 15:39:50;;;;;;;9.63;1.42;;;21.00;61.40;;;;;;4774505;30;20047;-77
2022/07/06 15:42:16;;;;;;;14.68;1.85;;;21.00;61.40;;;;;;4774490;30;20507;-77
2022/07/06 15:44:42;;;;;;;12.75;1.50;;;21.00;61.20;;;;;;4774617;30;20056;-76
2022/07/06 15:47:08;;;;;;;8.38;1.50;;;21.00;61.10;;;;;;4758653;30;20059;-78
2022/07/06 15:49:33;;;;;;;7.65;2.00;;;21.00;61.10;;;;;;4774541;30;20123;-78
2022/07/06 15:52:02;;;;;;;7.97;1.35;;;21.00;60.90;;;;;;4774229;30;20059;-77
2022/07/06 15:54:28;;;;;;;7.07;1.20;;;21.10;60.80;;;;;;4774486;30;20051;-79
2022/07/06 15:56:53;;;;;;;9.23;1.42;;;21.10;60.80;;;;;;4758236;30;20074;-78
2022/07/06 15:59:19;;;;;;;8.15;1.23;;;21.00;60.70;;;;;;4759141;30;20078;-78
2022/07/06 16:01:48;;;;;;;6.95;1.40;;;21.10;60.80;;;;;;4758376;30;20468;-77
2022/07/06 16:04:21;;;;;;;8.45;1.98;;;21.10;61.00;;;;;;4758523;30;20047;-77
2022/07/06 16:06:55;;;;;;;10.93;1.33;;;21.00;61.20;;;;;;4770439;30;20087;-74
2022/07/06 16:09:21;;;;;;;5.40;1.00;;;21.00;61.40;;;;;;4765046;30;20040;-81
2022/07/06 16:11:46;;;;;;;9.27;1.30;;;21.00;61.60;;;;;;4748520;30;20036;-78
2022/07/06 16:14:12;;;;;;;4.93;0.95;;;21.00;61.50;;;;;;4758765;30;20435;-78
2022/07/06 16:16:38;;;;;;;6.63;1.05;;;21.00;61.70;;;;;;4757853;30;20056;-78
2022/07/06 16:19:05;;;;;;;8.27;1.23;;;21.00;61.80;;;;;;4758467;30;20047;-76
2022/07/06 16:21:31;;;;;;;8.10;1.05;;;21.00;61.90;;;;;;4750871;30;20043;-75
2022/07/06 16:23:57;;;;;;;6.85;0.93;;;21.00;61.90;;;;;;4763577;30;20379;-77
2022/07/06 16:26:22;;;;;;;5.53;0.70;;;21.00;62.00;;;;;;4757766;30;20456;-77
2022/07/06 16:28:48;;;;;;;7.72;1.30;;;21.00;62.00;;;;;;4757238;30;20375;-77
2022/07/06 16:31:15;;;;;;;5.82;0.98;;;21.00;62.00;;;;;;4773610;30;20058;-78
2022/07/06 16:33:43;;;;;;;4.75;0.70;;;21.00;62.00;;;;;;4772609;30;20126;-76
2022/07/06 16:36:15;;;;;;;5.10;0.80;;;21.00;61.90;;;;;;4773719;30;20052;-75
2022/07/06 16:38:41;;;;;;;5.65;0.90;;;21.00;62.10;;;;;;4773515;30;20058;-78
2022/07/06 16:41:07;;;;;;;4.47;0.90;;;21.10;62.00;;;;;;4768830;30;20060;-80
2022/07/06 16:43:32;;;;;;;4.78;1.05;;;21.10;62.00;;;;;;4755699;30;20127;-77
2022/07/06 16:46:00;;;;;;;4.55;1.17;;;21.00;62.40;;;;;;4768637;30;20039;-79
2022/07/06 16:48:26;;;;;;;4.38;1.05;;;21.10;62.40;;;;;;4748498;30;20052;-78
2022/07/06 16:50:52;;;;;;;4.72;1.20;;;21.00;62.40;;;;;;4773153;30;20109;-78